createdAt,value
2019-04-20T00:00:55.038Z,99.90
2019-04-20T00:06:59.271Z,99.90
2019-04-20T00:13:16.604Z,99.90
2019-04-20T00:19:10.682Z,99.90
2019-04-20T00:25:47.212Z,99.90
2019-04-20T00:31:53.827Z,99.90
2019-04-20T00:37:48.712Z,99.90
2019-04-20T00:43:53.422Z,99.90
2019-04-20T00:50:13.945Z,99.90
2019-04-20T00:56:03.855Z,99.90
2019-04-20T01:02:22.133Z,99.90
2019-04-20T01:08:36.451Z,99.90
2019-04-20T01:14:49.767Z,99.90
2019-04-20T01:20:47.334Z,99.90
2019-04-20T01:26:56.016Z,99.90
2019-04-20T01:33:14.909Z,99.90
2019-04-20T01:39:15.969Z,99.90
2019-04-20T01:45:19.132Z,99.90
2019-04-20T01:51:23.400Z,99.90
2019-04-20T01:57:53.345Z,99.90
2019-04-20T02:03:52.470Z,99.90
2019-04-20T02:10:00.812Z,99.90
2019-04-20T02:16:14.037Z,99.90
2019-04-20T02:22:27.781Z,99.90
2019-04-20T02:28:27.252Z,99.90
2019-04-20T02:35:07.206Z,99.90
2019-04-20T02:41:17.825Z,99.90
2019-04-20T02:47:35.756Z,99.90
2019-04-20T02:53:43.560Z,99.90
2019-04-20T03:05:25.616Z,99.90
2019-04-20T03:11:49.873Z,99.90
2019-04-20T03:17:46.411Z,99.90
2019-04-20T03:24:02.198Z,99.90
2019-04-20T03:30:22.889Z,99.90
2019-04-20T03:36:25.165Z,99.90
2019-04-20T03:42:00.437Z,99.90
2019-04-20T03:48:16.106Z,99.90
2019-04-20T03:54:47.830Z,99.90
2019-04-20T04:01:35.893Z,99.90
2019-04-20T04:07:21.456Z,99.90
2019-04-20T04:13:18.735Z,99.90
2019-04-20T04:19:31.253Z,99.90
2019-04-20T04:25:48.024Z,99.90
2019-04-20T04:32:03.658Z,99.90
2019-04-20T04:38:02.261Z,99.90
2019-04-20T04:44:04.524Z,99.90
2019-04-20T04:50:04.847Z,99.90
2019-04-20T04:56:05.741Z,99.90
2019-04-20T05:02:05.381Z,99.90
2019-04-20T05:08:21.192Z,99.90
2019-04-20T05:14:23.576Z,99.90
2019-04-20T05:20:47.243Z,99.90
2019-04-20T05:27:16.006Z,99.90
2019-04-20T05:33:04.648Z,99.90
2019-04-20T05:45:28.795Z,99.90
2019-04-20T05:51:40.891Z,99.90
2019-04-20T05:57:42.009Z,99.90
2019-04-20T06:03:48.817Z,99.90
2019-04-20T06:10:02.662Z,99.90
2019-04-20T06:16:07.422Z,99.90
2019-04-20T06:22:28.463Z,99.90
2019-04-20T06:28:22.257Z,99.90
2019-04-20T06:34:42.537Z,99.90
2019-04-20T06:40:56.609Z,99.90
2019-04-20T06:46:57.311Z,99.90
2019-04-20T06:53:18.681Z,99.90
2019-04-20T06:59:19.863Z,99.90
2019-04-20T07:11:28.252Z,99.90
2019-04-20T07:23:57.633Z,99.90
2019-04-20T07:29:57.450Z,99.60
2019-04-20T07:36:06.099Z,99.40
2019-04-20T07:42:19.240Z,99.30
2019-04-20T07:48:15.232Z,98.90
2019-04-20T07:54:34.286Z,98.10
2019-04-20T08:00:35.397Z,97.30
2019-04-20T08:06:32.124Z,96.00
2019-04-20T08:12:58.404Z,95.90
2019-04-20T08:18:55.492Z,94.10
2019-04-20T08:24:55.324Z,93.90
2019-04-20T08:31:13.865Z,92.90
2019-04-20T08:37:20.614Z,91.60
2019-04-20T08:43:43.256Z,91.10
2019-04-20T08:49:45.501Z,88.90
2019-04-20T08:55:40.130Z,85.80
2019-04-20T09:01:30.873Z,82.10
2019-04-20T09:07:45.242Z,83.40
2019-04-20T09:13:46.209Z,81.30
2019-04-20T09:19:55.724Z,81.20
2019-04-20T09:26:12.947Z,76.70
2019-04-20T09:32:23.683Z,77.40
2019-04-20T09:38:27.269Z,75.90
2019-04-20T09:44:15.967Z,75.80
2019-04-20T09:50:38.806Z,76.80
2019-04-20T09:56:39.513Z,76.60
2019-04-20T10:02:34.808Z,74.30
2019-04-20T10:08:44.806Z,74.60
2019-04-20T10:14:44.868Z,75.90
2019-04-20T10:20:49.698Z,75.30
2019-04-20T10:26:54.599Z,72.90
2019-04-20T10:32:59.568Z,68.10
2019-04-20T10:39:06.586Z,68.90
2019-04-20T10:45:11.254Z,70.00
2019-04-20T10:51:15.637Z,66.10
2019-04-20T10:57:23.729Z,65.90
2019-04-20T11:03:28.874Z,66.90
2019-04-20T11:09:34.416Z,61.80
2019-04-20T11:15:38.929Z,60.00
2019-04-20T11:21:44.105Z,61.00
2019-04-20T11:27:48.482Z,57.90
2019-04-20T11:33:54.131Z,58.80
2019-04-20T11:39:59.071Z,59.10
2019-04-20T11:46:04.685Z,57.70
2019-04-20T11:52:09.757Z,52.50
2019-04-20T11:58:14.318Z,54.60
2019-04-20T12:04:35.629Z,47.40
2019-04-20T12:10:31.856Z,44.10
2019-04-20T12:16:37.563Z,46.50
2019-04-20T12:22:42.154Z,44.50
2019-04-20T12:28:47.562Z,44.60
2019-04-20T12:34:52.350Z,46.20
2019-04-20T12:41:01.361Z,49.20
2019-04-20T12:47:05.667Z,47.50
2019-04-20T12:53:10.654Z,47.40
2019-04-20T12:59:15.828Z,47.90
2019-04-20T13:05:20.524Z,48.00
2019-04-20T13:11:50.384Z,47.30
2019-04-20T13:17:46.233Z,47.20
2019-04-20T13:23:51.218Z,50.90
2019-04-20T13:29:55.986Z,47.10
2019-04-20T13:36:01.637Z,46.60
2019-04-20T13:42:13.994Z,48.00
2019-04-20T13:48:12.940Z,48.10
2019-04-20T13:54:20.880Z,46.90
2019-04-20T14:00:57.409Z,48.00
2019-04-20T14:07:03.926Z,49.30
2019-04-20T14:13:13.654Z,49.90
2019-04-20T14:19:14.701Z,48.50
2019-04-20T14:25:18.960Z,46.30
2019-04-20T14:31:23.955Z,47.20
2019-04-20T14:37:28.971Z,48.20
2019-04-20T14:43:34.677Z,47.30
2019-04-20T14:49:39.387Z,50.40
2019-04-20T14:55:45.311Z,53.00
2019-04-20T15:01:54.643Z,52.60
2019-04-20T15:08:00.634Z,52.60
2019-04-20T15:14:05.236Z,51.60
2019-04-20T15:20:19.829Z,50.50
2019-04-20T15:26:24.430Z,49.90
2019-04-20T15:32:29.142Z,51.20
2019-04-20T15:38:33.553Z,51.30
2019-04-20T15:44:37.870Z,53.00
2019-04-20T15:50:43.628Z,54.50
2019-04-20T15:56:52.689Z,53.40
2019-04-20T16:03:01.297Z,53.10
2019-04-20T16:09:08.353Z,52.20
2019-04-20T16:15:13.594Z,52.90
2019-04-20T16:21:22.106Z,53.10
2019-04-20T16:27:49.788Z,55.00
2019-04-20T16:33:56.866Z,56.90
2019-04-20T16:40:00.811Z,58.70
2019-04-20T16:46:06.397Z,58.10
2019-04-20T16:52:10.723Z,58.90
2019-04-20T16:58:15.527Z,58.00
2019-04-20T17:04:22.556Z,57.80
2019-04-20T17:10:26.580Z,58.60
2019-04-20T17:16:31.661Z,60.70
2019-04-20T17:22:37.154Z,61.90
2019-04-20T17:28:55.063Z,63.80
2019-04-20T17:35:13.547Z,65.10
2019-04-20T17:41:27.759Z,66.20
2019-04-20T17:47:30.366Z,67.20
2019-04-20T17:53:54.591Z,67.90
2019-04-20T18:00:03.052Z,69.60
2019-04-20T18:06:30.392Z,69.90
2019-04-20T18:12:25.197Z,69.40
2019-04-20T18:18:47.751Z,70.70
2019-04-20T18:25:02.720Z,71.50
2019-04-20T18:31:02.403Z,71.50
2019-04-20T18:37:08.631Z,72.40
2019-04-20T18:43:16.845Z,73.40
2019-04-20T18:49:32.247Z,73.70
2019-04-20T18:55:36.965Z,75.80
2019-04-20T19:01:32.073Z,76.30
2019-04-20T19:07:40.970Z,77.10
2019-04-20T19:13:51.316Z,76.70
2019-04-20T19:20:01.770Z,77.10
2019-04-20T19:26:11.919Z,77.30
2019-04-20T19:32:32.308Z,78.10
2019-04-20T19:38:24.127Z,78.80
2019-04-20T19:44:38.185Z,79.40
2019-04-20T19:50:54.630Z,79.70
2019-04-20T19:56:48.716Z,79.90
2019-04-20T20:02:43.501Z,81.40
2019-04-20T20:08:55.782Z,81.20
2019-04-20T20:14:55.398Z,80.20
2019-04-20T20:21:16.158Z,79.70
2019-04-20T20:27:17.366Z,80.40
2019-04-20T20:33:30.659Z,81.30
2019-04-20T20:39:25.356Z,82.50
2019-04-20T20:45:33.606Z,82.80
2019-04-20T20:51:50.103Z,83.60
2019-04-20T20:57:44.893Z,83.90
2019-04-20T21:03:46.099Z,84.40
2019-04-20T21:09:48.407Z,85.50
2019-04-20T21:16:01.306Z,87.20
2019-04-20T21:22:06.892Z,88.30
2019-04-20T21:28:04.853Z,89.50
2019-04-20T21:34:14.866Z,90.30
2019-04-20T21:40:25.104Z,90.40
2019-04-20T21:46:22.856Z,91.00
2019-04-20T21:52:37.312Z,91.40
2019-04-20T21:58:40.896Z,91.70
2019-04-20T22:04:39.660Z,92.20
2019-04-20T22:10:44.953Z,92.70
2019-04-20T22:16:53.021Z,92.70
2019-04-20T22:23:06.074Z,93.30
2019-04-20T22:29:02.464Z,93.30
2019-04-20T22:35:12.641Z,93.70
2019-04-20T22:41:17.224Z,94.30
2019-04-20T22:47:24.630Z,95.20
2019-04-20T22:53:38.845Z,95.80
2019-04-20T22:59:44.820Z,96.80
2019-04-20T23:05:38.594Z,98.50
2019-04-20T23:11:43.100Z,99.60
2019-04-20T23:17:50.327Z,99.90
2019-04-20T23:24:02.682Z,99.90
2019-04-20T23:30:05.583Z,99.90
2019-04-20T23:36:06.780Z,99.90
2019-04-20T23:42:16.017Z,99.90
2019-04-20T23:48:29.367Z,99.90
2019-04-20T23:54:34.051Z,99.90
